sensor_id;sensor_type;location;lat;lon;timestamp;P1;durP1;ratioP1;P2;durP2;ratioP2
36391;SDS011;22639;42.690;23.356;2023-04-24T00:02:08;3.47;;;2.97;;
36391;SDS011;22639;42.690;23.356;2023-04-24T00:05:32;4.00;;;2.93;;
36391;SDS011;22639;42.690;23.356;2023-04-24T00:09:00;3.57;;;3.23;;
36391;SDS011;22639;42.690;23.356;2023-04-24T00:12:24;4.00;;;3.43;;
36391;SDS011;22639;42.690;23.356;2023-04-24T00:16:07;3.17;;;2.63;;
36391;SDS011;22639;42.690;23.356;2023-04-24T00:19:31;7.70;;;3.13;;
36391;SDS011;22639;42.690;23.356;2023-04-24T00:22:57;4.00;;;2.93;;
36391;SDS011;22639;42.690;23.356;2023-04-24T00:26:21;3.73;;;3.43;;
36391;SDS011;22639;42.690;23.356;2023-04-24T00:29:45;3.17;;;2.40;;
36391;SDS011;22639;42.690;23.356;2023-04-24T00:33:08;6.37;;;2.77;;
36391;SDS011;22639;42.690;23.356;2023-04-24T00:36:33;4.50;;;3.20;;
36391;SDS011;22639;42.690;23.356;2023-04-24T00:39:57;5.33;;;3.70;;
36391;SDS011;22639;42.690;23.356;2023-04-24T00:43:20;3.73;;;3.20;;
36391;SDS011;22639;42.690;23.356;2023-04-24T00:46:45;3.53;;;3.07;;
36391;SDS011;22639;42.690;23.356;2023-04-24T00:50:10;4.40;;;3.53;;
36391;SDS011;22639;42.690;23.356;2023-04-24T00:53:34;5.87;;;4.17;;
36391;SDS011;22639;42.690;23.356;2023-04-24T00:57:00;4.03;;;3.40;;
36391;SDS011;22639;42.690;23.356;2023-04-24T01:00:24;3.33;;;3.03;;
36391;SDS011;22639;42.690;23.356;2023-04-24T01:03:49;4.37;;;3.30;;
36391;SDS011;22639;42.690;23.356;2023-04-24T01:07:15;3.67;;;3.27;;
36391;SDS011;22639;42.690;23.356;2023-04-24T01:10:40;4.73;;;3.47;;
36391;SDS011;22639;42.690;23.356;2023-04-24T01:14:05;5.83;;;4.13;;
36391;SDS011;22639;42.690;23.356;2023-04-24T01:17:31;4.60;;;4.20;;
36391;SDS011;22639;42.690;23.356;2023-04-24T01:20:58;3.77;;;3.33;;
36391;SDS011;22639;42.690;23.356;2023-04-24T01:24:23;4.60;;;3.13;;
36391;SDS011;22639;42.690;23.356;2023-04-24T01:27:47;4.53;;;3.27;;
36391;SDS011;22639;42.690;23.356;2023-04-24T01:31:11;4.77;;;3.23;;
36391;SDS011;22639;42.690;23.356;2023-04-24T01:34:35;4.53;;;2.77;;
36391;SDS011;22639;42.690;23.356;2023-04-24T01:38:01;4.77;;;3.20;;
36391;SDS011;22639;42.690;23.356;2023-04-24T01:41:25;4.50;;;3.47;;
36391;SDS011;22639;42.690;23.356;2023-04-24T01:44:49;4.73;;;2.60;;
36391;SDS011;22639;42.690;23.356;2023-04-24T01:48:13;6.20;;;3.80;;
36391;SDS011;22639;42.690;23.356;2023-04-24T01:51:37;5.47;;;3.50;;
36391;SDS011;22639;42.690;23.356;2023-04-24T01:55:04;3.13;;;2.47;;
36391;SDS011;22639;42.690;23.356;2023-04-24T01:58:28;4.20;;;3.53;;
36391;SDS011;22639;42.690;23.356;2023-04-24T02:01:53;4.70;;;3.63;;
36391;SDS011;22639;42.690;23.356;2023-04-24T02:05:17;4.40;;;3.77;;
36391;SDS011;22639;42.690;23.356;2023-04-24T02:08:41;3.33;;;2.50;;
36391;SDS011;22639;42.690;23.356;2023-04-24T02:12:05;5.57;;;3.90;;
36391;SDS011;22639;42.690;23.356;2023-04-24T02:15:29;5.57;;;3.70;;
36391;SDS011;22639;42.690;23.356;2023-04-24T02:18:57;11.47;;;4.20;;
36391;SDS011;22639;42.690;23.356;2023-04-24T02:22:21;3.90;;;3.57;;
36391;SDS011;22639;42.690;23.356;2023-04-24T02:25:45;5.77;;;4.87;;
36391;SDS011;22639;42.690;23.356;2023-04-24T02:29:09;5.13;;;4.00;;
36391;SDS011;22639;42.690;23.356;2023-04-24T02:32:33;5.43;;;4.87;;
36391;SDS011;22639;42.690;23.356;2023-04-24T02:35:57;6.43;;;4.87;;
36391;SDS011;22639;42.690;23.356;2023-04-24T02:39:21;5.00;;;3.40;;
36391;SDS011;22639;42.690;23.356;2023-04-24T02:42:45;4.33;;;3.50;;
36391;SDS011;22639;42.690;23.356;2023-04-24T02:46:08;6.90;;;4.97;;
36391;SDS011;22639;42.690;23.356;2023-04-24T02:49:33;5.43;;;4.63;;
36391;SDS011;22639;42.690;23.356;2023-04-24T02:52:58;6.80;;;4.33;;
36391;SDS011;22639;42.690;23.356;2023-04-24T02:56:22;4.73;;;3.43;;
36391;SDS011;22639;42.690;23.356;2023-04-24T02:59:46;6.30;;;3.60;;
36391;SDS011;22639;42.690;23.356;2023-04-24T03:03:10;6.83;;;4.57;;
36391;SDS011;22639;42.690;23.356;2023-04-24T03:06:35;6.70;;;4.07;;
36391;SDS011;22639;42.690;23.356;2023-04-24T03:09:59;6.90;;;3.50;;
36391;SDS011;22639;42.690;23.356;2023-04-24T03:13:23;5.57;;;4.63;;
36391;SDS011;22639;42.690;23.356;2023-04-24T03:16:47;8.63;;;4.53;;
36391;SDS011;22639;42.690;23.356;2023-04-24T03:20:10;5.90;;;4.37;;
36391;SDS011;22639;42.690;23.356;2023-04-24T03:23:35;10.87;;;3.47;;
36391;SDS011;22639;42.690;23.356;2023-04-24T03:26:59;5.23;;;4.67;;
36391;SDS011;22639;42.690;23.356;2023-04-24T03:30:22;8.03;;;4.67;;
36391;SDS011;22639;42.690;23.356;2023-04-24T03:33:47;5.20;;;3.83;;
36391;SDS011;22639;42.690;23.356;2023-04-24T03:37:10;6.97;;;4.20;;
36391;SDS011;22639;42.690;23.356;2023-04-24T03:40:35;5.80;;;4.53;;
36391;SDS011;22639;42.690;23.356;2023-04-24T03:43:59;12.87;;;4.90;;
36391;SDS011;22639;42.690;23.356;2023-04-24T03:47:23;5.80;;;4.53;;
36391;SDS011;22639;42.690;23.356;2023-04-24T03:50:47;6.47;;;4.17;;
36391;SDS011;22639;42.690;23.356;2023-04-24T03:54:10;4.97;;;3.53;;
36391;SDS011;22639;42.690;23.356;2023-04-24T03:57:38;5.37;;;3.90;;
36391;SDS011;22639;42.690;23.356;2023-04-24T04:01:01;5.07;;;4.20;;
36391;SDS011;22639;42.690;23.356;2023-04-24T04:04:25;8.13;;;4.83;;
36391;SDS011;22639;42.690;23.356;2023-04-24T04:07:49;4.13;;;3.27;;
36391;SDS011;22639;42.690;23.356;2023-04-24T04:11:13;10.03;;;7.10;;
36391;SDS011;22639;42.690;23.356;2023-04-24T04:14:37;7.03;;;4.57;;
36391;SDS011;22639;42.690;23.356;2023-04-24T04:18:01;5.43;;;4.50;;
36391;SDS011;22639;42.690;23.356;2023-04-24T04:21:27;8.52;;;5.55;;
36391;SDS011;22639;42.690;23.356;2023-04-24T04:24:52;5.90;;;4.50;;
36391;SDS011;22639;42.690;23.356;2023-04-24T04:28:16;5.70;;;4.20;;
36391;SDS011;22639;42.690;23.356;2023-04-24T04:31:40;6.20;;;4.43;;
36391;SDS011;22639;42.690;23.356;2023-04-24T04:35:04;7.37;;;3.37;;
36391;SDS011;22639;42.690;23.356;2023-04-24T04:38:29;7.03;;;4.53;;
36391;SDS011;22639;42.690;23.356;2023-04-24T04:41:53;4.90;;;3.97;;
36391;SDS011;22639;42.690;23.356;2023-04-24T04:45:18;5.70;;;4.63;;
36391;SDS011;22639;42.690;23.356;2023-04-24T04:48:42;7.40;;;4.37;;
36391;SDS011;22639;42.690;23.356;2023-04-24T04:52:06;4.20;;;3.80;;
36391;SDS011;22639;42.690;23.356;2023-04-24T04:55:30;4.23;;;3.83;;
36391;SDS011;22639;42.690;23.356;2023-04-24T04:58:54;8.67;;;4.93;;
36391;SDS011;22639;42.690;23.356;2023-04-24T05:02:18;13.33;;;4.50;;
36391;SDS011;22639;42.690;23.356;2023-04-24T05:05:42;8.43;;;4.13;;
36391;SDS011;22639;42.690;23.356;2023-04-24T05:09:06;6.55;;;3.72;;
36391;SDS011;22639;42.690;23.356;2023-04-24T05:12:30;6.80;;;5.20;;
36391;SDS011;22639;42.690;23.356;2023-04-24T05:15:54;4.80;;;4.05;;
36391;SDS011;22639;42.690;23.356;2023-04-24T05:19:18;9.65;;;4.63;;
36391;SDS011;22639;42.690;23.356;2023-04-24T05:22:42;12.18;;;5.30;;
36391;SDS011;22639;42.690;23.356;2023-04-24T05:26:06;7.45;;;5.43;;
36391;SDS011;22639;42.690;23.356;2023-04-24T05:29:31;12.65;;;5.13;;
36391;SDS011;22639;42.690;23.356;2023-04-24T05:32:55;14.43;;;5.22;;
36391;SDS011;22639;42.690;23.356;2023-04-24T05:36:20;6.35;;;5.57;;
36391;SDS011;22639;42.690;23.356;2023-04-24T05:39:44;6.45;;;5.10;;
36391;SDS011;22639;42.690;23.356;2023-04-24T05:43:08;7.68;;;4.38;;
36391;SDS011;22639;42.690;23.356;2023-04-24T05:46:32;6.55;;;5.00;;
36391;SDS011;22639;42.690;23.356;2023-04-24T05:49:56;6.57;;;5.57;;
36391;SDS011;22639;42.690;23.356;2023-04-24T05:53:20;6.50;;;5.63;;
36391;SDS011;22639;42.690;23.356;2023-04-24T05:56:44;8.18;;;5.38;;
36391;SDS011;22639;42.690;23.356;2023-04-24T06:00:09;8.13;;;6.28;;
36391;SDS011;22639;42.690;23.356;2023-04-24T06:03:33;7.82;;;5.43;;
36391;SDS011;22639;42.690;23.356;2023-04-24T06:06:57;8.68;;;6.20;;
36391;SDS011;22639;42.690;23.356;2023-04-24T06:10:21;8.85;;;6.18;;
36391;SDS011;22639;42.690;23.356;2023-04-24T06:13:45;8.60;;;7.05;;
36391;SDS011;22639;42.690;23.356;2023-04-24T06:17:09;6.32;;;5.40;;
36391;SDS011;22639;42.690;23.356;2023-04-24T06:20:35;7.20;;;5.47;;
36391;SDS011;22639;42.690;23.356;2023-04-24T06:23:58;6.22;;;5.63;;
36391;SDS011;22639;42.690;23.356;2023-04-24T06:27:22;6.05;;;5.50;;
36391;SDS011;22639;42.690;23.356;2023-04-24T06:30:46;6.75;;;5.80;;
36391;SDS011;22639;42.690;23.356;2023-04-24T06:34:10;10.88;;;6.88;;
36391;SDS011;22639;42.690;23.356;2023-04-24T06:37:35;6.38;;;5.78;;
36391;SDS011;22639;42.690;23.356;2023-04-24T06:40:56;6.47;;;5.88;;
36391;SDS011;22639;42.690;23.356;2023-04-24T06:44:20;8.93;;;6.13;;
36391;SDS011;22639;42.690;23.356;2023-04-24T06:47:44;8.15;;;6.47;;
36391;SDS011;22639;42.690;23.356;2023-04-24T06:50:54;7.22;;;6.05;;
36391;SDS011;22639;42.690;23.356;2023-04-24T06:54:17;6.93;;;6.20;;
36391;SDS011;22639;42.690;23.356;2023-04-24T06:57:42;8.95;;;6.20;;
36391;SDS011;22639;42.690;23.356;2023-04-24T07:01:06;8.25;;;6.32;;
36391;SDS011;22639;42.690;23.356;2023-04-24T07:04:30;6.35;;;5.75;;
36391;SDS011;22639;42.690;23.356;2023-04-24T07:07:50;5.75;;;5.18;;
36391;SDS011;22639;42.690;23.356;2023-04-24T07:11:14;8.90;;;5.85;;
36391;SDS011;22639;42.690;23.356;2023-04-24T07:14:39;9.02;;;6.80;;
36391;SDS011;22639;42.690;23.356;2023-04-24T07:18:03;6.50;;;5.90;;
36391;SDS011;22639;42.690;23.356;2023-04-24T07:21:27;7.30;;;5.60;;
36391;SDS011;22639;42.690;23.356;2023-04-24T07:24:51;7.28;;;6.55;;
36391;SDS011;22639;42.690;23.356;2023-04-24T07:28:03;9.40;;;6.15;;
36391;SDS011;22639;42.690;23.356;2023-04-24T07:31:27;7.05;;;6.35;;
36391;SDS011;22639;42.690;23.356;2023-04-24T07:34:51;6.78;;;6.07;;
36391;SDS011;22639;42.690;23.356;2023-04-24T07:38:15;9.15;;;6.22;;
36391;SDS011;22639;42.690;23.356;2023-04-24T07:41:39;6.70;;;5.55;;
36391;SDS011;22639;42.690;23.356;2023-04-24T07:45:04;6.65;;;5.97;;
36391;SDS011;22639;42.690;23.356;2023-04-24T07:48:28;8.07;;;5.75;;
36391;SDS011;22639;42.690;23.356;2023-04-24T07:51:52;6.22;;;5.63;;
36391;SDS011;22639;42.690;23.356;2023-04-24T07:55:16;7.03;;;5.00;;
36391;SDS011;22639;42.690;23.356;2023-04-24T07:58:42;5.82;;;5.15;;
36391;SDS011;22639;42.690;23.356;2023-04-24T08:02:07;7.32;;;5.00;;
36391;SDS011;22639;42.690;23.356;2023-04-24T08:05:31;5.18;;;4.68;;
36391;SDS011;22639;42.690;23.356;2023-04-24T08:08:58;3.70;;;3.40;;
36391;SDS011;22639;42.690;23.356;2023-04-24T08:12:25;5.15;;;4.68;;
36391;SDS011;22639;42.690;23.356;2023-04-24T08:15:49;5.70;;;4.82;;
36391;SDS011;22639;42.690;23.356;2023-04-24T08:19:14;5.25;;;4.75;;
36391;SDS011;22639;42.690;23.356;2023-04-24T08:22:43;5.03;;;4.43;;
36391;SDS011;22639;42.690;23.356;2023-04-24T08:26:07;3.90;;;3.60;;
36391;SDS011;22639;42.690;23.356;2023-04-24T08:29:31;4.50;;;4.10;;
36391;SDS011;22639;42.690;23.356;2023-04-24T08:32:56;7.50;;;3.95;;
36391;SDS011;22639;42.690;23.356;2023-04-24T08:36:20;4.88;;;4.47;;
36391;SDS011;22639;42.690;23.356;2023-04-24T08:39:45;4.82;;;4.43;;
36391;SDS011;22639;42.690;23.356;2023-04-24T08:43:10;4.78;;;4.30;;
36391;SDS011;22639;42.690;23.356;2023-04-24T08:46:36;4.40;;;4.00;;
36391;SDS011;22639;42.690;23.356;2023-04-24T08:50:02;5.00;;;4.05;;
36391;SDS011;22639;42.690;23.356;2023-04-24T08:53:27;4.10;;;3.80;;
36391;SDS011;22639;42.690;23.356;2023-04-24T08:56:51;4.50;;;4.10;;
36391;SDS011;22639;42.690;23.356;2023-04-24T09:00:19;4.72;;;4.28;;
36391;SDS011;22639;42.690;23.356;2023-04-24T09:03:44;4.63;;;4.18;;
36391;SDS011;22639;42.690;23.356;2023-04-24T09:07:09;3.70;;;3.40;;
36391;SDS011;22639;42.690;23.356;2023-04-24T09:10:36;4.72;;;4.20;;
36391;SDS011;22639;42.690;23.356;2023-04-24T09:13:59;4.00;;;3.60;;
36391;SDS011;22639;42.690;23.356;2023-04-24T09:17:25;4.43;;;4.05;;
36391;SDS011;22639;42.690;23.356;2023-04-24T09:21:07;4.15;;;3.72;;
36391;SDS011;22639;42.690;23.356;2023-04-24T09:24:31;4.63;;;4.10;;
36391;SDS011;22639;42.690;23.356;2023-04-24T09:28:01;4.95;;;4.55;;
36391;SDS011;22639;42.690;23.356;2023-04-24T09:31:26;5.65;;;4.53;;
36391;SDS011;22639;42.690;23.356;2023-04-24T09:35:07;5.32;;;3.75;;
36391;SDS011;22639;42.690;23.356;2023-04-24T09:41:55;4.28;;;3.78;;
36391;SDS011;22639;42.690;23.356;2023-04-24T09:45:21;6.68;;;4.05;;
36391;SDS011;22639;42.690;23.356;2023-04-24T09:48:49;4.50;;;4.10;;
36391;SDS011;22639;42.690;23.356;2023-04-24T09:52:31;4.32;;;3.92;;
36391;SDS011;22639;42.690;23.356;2023-04-24T09:55:56;4.38;;;3.63;;
36391;SDS011;22639;42.690;23.356;2023-04-24T09:59:20;8.52;;;3.97;;
36391;SDS011;22639;42.690;23.356;2023-04-24T10:02:49;4.03;;;3.70;;
36391;SDS011;22639;42.690;23.356;2023-04-24T10:06:13;4.60;;;4.20;;
36391;SDS011;22639;42.690;23.356;2023-04-24T10:09:39;4.10;;;3.80;;
36391;SDS011;22639;42.690;23.356;2023-04-24T10:13:08;4.88;;;4.20;;
36391;SDS011;22639;42.690;23.356;2023-04-24T10:16:35;4.18;;;3.13;;
36391;SDS011;22639;42.690;23.356;2023-04-24T10:20:01;4.20;;;3.78;;
36391;SDS011;22639;42.690;23.356;2023-04-24T10:23:26;4.45;;;3.65;;
36391;SDS011;22639;42.690;23.356;2023-04-24T10:26:50;4.78;;;4.15;;
36391;SDS011;22639;42.690;23.356;2023-04-24T10:30:16;3.63;;;3.33;;
36391;SDS011;22639;42.690;23.356;2023-04-24T10:33:41;3.80;;;3.50;;
36391;SDS011;22639;42.690;23.356;2023-04-24T10:37:00;4.85;;;4.43;;
36391;SDS011;22639;42.690;23.356;2023-04-24T10:40:32;4.30;;;3.90;;
36391;SDS011;22639;42.690;23.356;2023-04-24T10:44:06;5.97;;;4.20;;
36391;SDS011;22639;42.690;23.356;2023-04-24T10:47:39;4.75;;;4.30;;
36391;SDS011;22639;42.690;23.356;2023-04-24T10:51:11;4.95;;;4.30;;
36391;SDS011;22639;42.690;23.356;2023-04-24T10:54:36;3.72;;;3.45;;
36391;SDS011;22639;42.690;23.356;2023-04-24T10:58:08;4.50;;;4.10;;
36391;SDS011;22639;42.690;23.356;2023-04-24T11:01:34;4.90;;;4.47;;
36391;SDS011;22639;42.690;23.356;2023-04-24T11:05:03;4.15;;;3.75;;
36391;SDS011;22639;42.690;23.356;2023-04-24T11:08:44;4.28;;;3.90;;
36391;SDS011;22639;42.690;23.356;2023-04-24T11:12:10;4.75;;;4.10;;
36391;SDS011;22639;42.690;23.356;2023-04-24T11:15:33;8.38;;;4.22;;
36391;SDS011;22639;42.690;23.356;2023-04-24T11:22:42;5.57;;;4.78;;
36391;SDS011;22639;42.690;23.356;2023-04-24T11:26:10;4.90;;;4.50;;
36391;SDS011;22639;42.690;23.356;2023-04-24T11:33:12;4.35;;;3.40;;
36391;SDS011;22639;42.690;23.356;2023-04-24T11:36:44;4.22;;;3.65;;
36391;SDS011;22639;42.690;23.356;2023-04-24T11:40:11;3.92;;;3.58;;
36391;SDS011;22639;42.690;23.356;2023-04-24T11:43:36;5.75;;;4.32;;
36391;SDS011;22639;42.690;23.356;2023-04-24T11:47:03;4.32;;;3.90;;
36391;SDS011;22639;42.690;23.356;2023-04-24T11:50:27;3.30;;;3.00;;
36391;SDS011;22639;42.690;23.356;2023-04-24T11:53:55;7.38;;;3.38;;
36391;SDS011;22639;42.690;23.356;2023-04-24T11:57:20;2.97;;;2.78;;
36391;SDS011;22639;42.690;23.356;2023-04-24T12:00:54;3.17;;;2.92;;
36391;SDS011;22639;42.690;23.356;2023-04-24T12:04:19;3.45;;;3.13;;
36391;SDS011;22639;42.690;23.356;2023-04-24T12:07:53;4.25;;;3.25;;
36391;SDS011;22639;42.690;23.356;2023-04-24T12:11:19;4.40;;;3.25;;
36391;SDS011;22639;42.690;23.356;2023-04-24T12:14:48;3.88;;;3.47;;
36391;SDS011;22639;42.690;23.356;2023-04-24T12:18:13;3.17;;;2.60;;
36391;SDS011;22639;42.690;23.356;2023-04-24T12:21:42;3.47;;;3.08;;
36391;SDS011;22639;42.690;23.356;2023-04-24T12:25:16;4.40;;;3.35;;
36391;SDS011;22639;42.690;23.356;2023-04-24T12:28:41;3.67;;;3.35;;
36391;SDS011;22639;42.690;23.356;2023-04-24T12:32:18;3.78;;;3.05;;
36391;SDS011;22639;42.690;23.356;2023-04-24T12:35:43;3.42;;;3.13;;
36391;SDS011;22639;42.690;23.356;2023-04-24T12:39:14;3.60;;;3.30;;
36391;SDS011;22639;42.690;23.356;2023-04-24T12:42:44;3.15;;;2.85;;
36391;SDS011;22639;42.690;23.356;2023-04-24T12:46:18;4.57;;;3.05;;
36391;SDS011;22639;42.690;23.356;2023-04-24T12:49:42;2.80;;;2.50;;
36391;SDS011;22639;42.690;23.356;2023-04-24T12:53:08;3.30;;;3.00;;
36391;SDS011;22639;42.690;23.356;2023-04-24T12:56:32;3.53;;;2.70;;
36391;SDS011;22639;42.690;23.356;2023-04-24T12:59:59;3.35;;;2.47;;
36391;SDS011;22639;42.690;23.356;2023-04-24T13:03:23;5.38;;;2.80;;
36391;SDS011;22639;42.690;23.356;2023-04-24T13:06:47;2.90;;;2.70;;
36391;SDS011;22639;42.690;23.356;2023-04-24T13:10:11;3.25;;;2.95;;
36391;SDS011;22639;42.690;23.356;2023-04-24T13:13:35;4.60;;;3.08;;
36391;SDS011;22639;42.690;23.356;2023-04-24T13:16:59;4.50;;;3.20;;
36391;SDS011;22639;42.690;23.356;2023-04-24T13:20:23;3.28;;;2.97;;
36391;SDS011;22639;42.690;23.356;2023-04-24T13:23:48;4.20;;;3.45;;
36391;SDS011;22639;42.690;23.356;2023-04-24T13:27:13;3.83;;;2.92;;
36391;SDS011;22639;42.690;23.356;2023-04-24T13:30:37;4.13;;;3.55;;
36391;SDS011;22639;42.690;23.356;2023-04-24T13:34:02;4.75;;;2.97;;
36391;SDS011;22639;42.690;23.356;2023-04-24T13:37:26;3.70;;;3.10;;
36391;SDS011;22639;42.690;23.356;2023-04-24T13:40:49;5.13;;;3.50;;
36391;SDS011;22639;42.690;23.356;2023-04-24T13:44:14;4.43;;;3.28;;
36391;SDS011;22639;42.690;23.356;2023-04-24T13:47:39;3.67;;;3.38;;
36391;SDS011;22639;42.690;23.356;2023-04-24T13:51:02;4.32;;;3.75;;
36391;SDS011;22639;42.690;23.356;2023-04-24T13:54:26;6.22;;;3.58;;
36391;SDS011;22639;42.690;23.356;2023-04-24T13:57:50;4.35;;;3.65;;
36391;SDS011;22639;42.690;23.356;2023-04-24T14:01:14;4.95;;;3.55;;
36391;SDS011;22639;42.690;23.356;2023-04-24T14:04:38;3.60;;;3.30;;
36391;SDS011;22639;42.690;23.356;2023-04-24T14:08:02;4.38;;;3.47;;
36391;SDS011;22639;42.690;23.356;2023-04-24T14:11:26;3.28;;;3.03;;
36391;SDS011;22639;42.690;23.356;2023-04-24T14:14:51;4.10;;;3.53;;
36391;SDS011;22639;42.690;23.356;2023-04-24T14:18:16;4.07;;;3.45;;
36391;SDS011;22639;42.690;23.356;2023-04-24T14:21:40;3.28;;;2.97;;
36391;SDS011;22639;42.690;23.356;2023-04-24T14:25:04;3.60;;;3.30;;
36391;SDS011;22639;42.690;23.356;2023-04-24T14:28:28;3.05;;;2.75;;
36391;SDS011;22639;42.690;23.356;2023-04-24T14:31:52;3.45;;;2.53;;
36391;SDS011;22639;42.690;23.356;2023-04-24T14:35:17;3.03;;;1.98;;
36391;SDS011;22639;42.690;23.356;2023-04-24T14:38:41;3.03;;;2.83;;
36391;SDS011;22639;42.690;23.356;2023-04-24T14:42:05;3.50;;;3.20;;
36391;SDS011;22639;42.690;23.356;2023-04-24T14:45:29;3.72;;;2.60;;
36391;SDS011;22639;42.690;23.356;2023-04-24T14:48:53;3.50;;;3.20;;
36391;SDS011;22639;42.690;23.356;2023-04-24T14:52:17;3.28;;;2.95;;
36391;SDS011;22639;42.690;23.356;2023-04-24T14:55:41;6.47;;;4.95;;
36391;SDS011;22639;42.690;23.356;2023-04-24T14:59:06;6.47;;;5.25;;
36391;SDS011;22639;42.690;23.356;2023-04-24T15:02:34;3.78;;;2.88;;
36391;SDS011;22639;42.690;23.356;2023-04-24T15:05:58;4.60;;;2.80;;
36391;SDS011;22639;42.690;23.356;2023-04-24T15:09:23;5.20;;;3.40;;
36391;SDS011;22639;42.690;23.356;2023-04-24T15:12:49;6.55;;;4.15;;
36391;SDS011;22639;42.690;23.356;2023-04-24T15:16:12;5.82;;;3.80;;
36391;SDS011;22639;42.690;23.356;2023-04-24T15:19:36;7.18;;;4.43;;
36391;SDS011;22639;42.690;23.356;2023-04-24T15:23:00;3.97;;;3.38;;
36391;SDS011;22639;42.690;23.356;2023-04-24T15:26:24;4.35;;;3.95;;
36391;SDS011;22639;42.690;23.356;2023-04-24T15:29:49;5.78;;;4.40;;
36391;SDS011;22639;42.690;23.356;2023-04-24T15:33:13;8.70;;;6.18;;
36391;SDS011;22639;42.690;23.356;2023-04-24T15:36:37;11.60;;;5.47;;
36391;SDS011;22639;42.690;23.356;2023-04-24T15:40:01;6.15;;;4.90;;
36391;SDS011;22639;42.690;23.356;2023-04-24T15:43:25;4.55;;;4.07;;
36391;SDS011;22639;42.690;23.356;2023-04-24T15:46:50;10.23;;;6.32;;
36391;SDS011;22639;42.690;23.356;2023-04-24T15:50:16;4.97;;;3.97;;
36391;SDS011;22639;42.690;23.356;2023-04-24T15:53:40;5.40;;;4.70;;
36391;SDS011;22639;42.690;23.356;2023-04-24T15:57:05;7.95;;;6.85;;
36391;SDS011;22639;42.690;23.356;2023-04-24T16:00:29;6.40;;;5.63;;
36391;SDS011;22639;42.690;23.356;2023-04-24T16:03:59;5.80;;;5.15;;
36391;SDS011;22639;42.690;23.356;2023-04-24T16:07:22;5.32;;;4.60;;
36391;SDS011;22639;42.690;23.356;2023-04-24T16:10:46;6.35;;;5.15;;
36391;SDS011;22639;42.690;23.356;2023-04-24T16:14:10;7.13;;;6.38;;
36391;SDS011;22639;42.690;23.356;2023-04-24T16:17:35;8.98;;;6.88;;
36391;SDS011;22639;42.690;23.356;2023-04-24T16:20:58;6.30;;;4.78;;
36391;SDS011;22639;42.690;23.356;2023-04-24T16:24:23;7.28;;;5.40;;
36391;SDS011;22639;42.690;23.356;2023-04-24T16:27:48;6.60;;;4.80;;
36391;SDS011;22639;42.690;23.356;2023-04-24T16:31:12;5.13;;;4.57;;
36391;SDS011;22639;42.690;23.356;2023-04-24T16:34:36;6.80;;;5.43;;
36391;SDS011;22639;42.690;23.356;2023-04-24T16:38:00;6.40;;;4.55;;
36391;SDS011;22639;42.690;23.356;2023-04-24T16:41:25;7.68;;;4.93;;
36391;SDS011;22639;42.690;23.356;2023-04-24T16:44:50;6.70;;;5.75;;
36391;SDS011;22639;42.690;23.356;2023-04-24T16:48:14;6.80;;;5.00;;
36391;SDS011;22639;42.690;23.356;2023-04-24T16:51:38;7.28;;;5.72;;
36391;SDS011;22639;42.690;23.356;2023-04-24T16:55:03;7.95;;;5.75;;
36391;SDS011;22639;42.690;23.356;2023-04-24T16:58:28;7.43;;;5.97;;
36391;SDS011;22639;42.690;23.356;2023-04-24T17:01:57;7.32;;;5.80;;
36391;SDS011;22639;42.690;23.356;2023-04-24T17:05:22;7.32;;;6.35;;
36391;SDS011;22639;42.690;23.356;2023-04-24T17:08:47;11.45;;;5.55;;
36391;SDS011;22639;42.690;23.356;2023-04-24T17:12:11;7.97;;;6.18;;
36391;SDS011;22639;42.690;23.356;2023-04-24T17:15:35;11.15;;;6.80;;
36391;SDS011;22639;42.690;23.356;2023-04-24T17:19:01;7.90;;;6.15;;
36391;SDS011;22639;42.690;23.356;2023-04-24T17:22:25;6.78;;;5.68;;
36391;SDS011;22639;42.690;23.356;2023-04-24T17:25:50;13.32;;;6.63;;
36391;SDS011;22639;42.690;23.356;2023-04-24T17:29:14;13.55;;;8.85;;
36391;SDS011;22639;42.690;23.356;2023-04-24T17:32:39;9.55;;;8.27;;
36391;SDS011;22639;42.690;23.356;2023-04-24T17:36:03;10.85;;;6.13;;
36391;SDS011;22639;42.690;23.356;2023-04-24T17:39:28;7.70;;;6.45;;
36391;SDS011;22639;42.690;23.356;2023-04-24T17:42:52;8.75;;;5.93;;
36391;SDS011;22639;42.690;23.356;2023-04-24T17:46:16;9.93;;;6.82;;
36391;SDS011;22639;42.690;23.356;2023-04-24T17:49:40;9.73;;;6.32;;
36391;SDS011;22639;42.690;23.356;2023-04-24T17:53:05;7.55;;;5.97;;
36391;SDS011;22639;42.690;23.356;2023-04-24T17:56:29;9.13;;;6.30;;
36391;SDS011;22639;42.690;23.356;2023-04-24T17:59:53;9.80;;;7.75;;
36391;SDS011;22639;42.690;23.356;2023-04-24T18:03:17;10.45;;;8.38;;
36391;SDS011;22639;42.690;23.356;2023-04-24T18:06:40;12.80;;;7.60;;
36391;SDS011;22639;42.690;23.356;2023-04-24T18:10:04;10.43;;;6.70;;
36391;SDS011;22639;42.690;23.356;2023-04-24T18:13:29;10.27;;;7.30;;
36391;SDS011;22639;42.690;23.356;2023-04-24T18:16:53;13.63;;;7.03;;
36391;SDS011;22639;42.690;23.356;2023-04-24T18:20:17;9.95;;;6.35;;
36391;SDS011;22639;42.690;23.356;2023-04-24T18:23:41;5.22;;;4.50;;
36391;SDS011;22639;42.690;23.356;2023-04-24T18:27:05;4.35;;;3.75;;
36391;SDS011;22639;42.690;23.356;2023-04-24T18:30:29;5.70;;;2.95;;
36391;SDS011;22639;42.690;23.356;2023-04-24T18:33:53;3.40;;;2.50;;
36391;SDS011;22639;42.690;23.356;2023-04-24T18:37:17;7.87;;;3.23;;
36391;SDS011;22639;42.690;23.356;2023-04-24T18:40:41;4.43;;;3.50;;
36391;SDS011;22639;42.690;23.356;2023-04-24T18:44:05;8.00;;;3.93;;
36391;SDS011;22639;42.690;23.356;2023-04-24T18:47:29;4.63;;;2.70;;
36391;SDS011;22639;42.690;23.356;2023-04-24T18:50:55;4.67;;;3.00;;
36391;SDS011;22639;42.690;23.356;2023-04-24T18:54:19;1.80;;;1.70;;
36391;SDS011;22639;42.690;23.356;2023-04-24T18:57:42;3.27;;;2.60;;
36391;SDS011;22639;42.690;23.356;2023-04-24T19:01:10;5.40;;;2.57;;
36391;SDS011;22639;42.690;23.356;2023-04-24T19:04:34;4.47;;;3.07;;
36391;SDS011;22639;42.690;23.356;2023-04-24T19:07:58;7.77;;;5.50;;
36391;SDS011;22639;42.690;23.356;2023-04-24T19:11:22;10.53;;;6.57;;
36391;SDS011;22639;42.690;23.356;2023-04-24T19:14:46;8.07;;;5.63;;
36391;SDS011;22639;42.690;23.356;2023-04-24T19:18:10;8.27;;;5.87;;
36391;SDS011;22639;42.690;23.356;2023-04-24T19:21:34;8.67;;;5.57;;
36391;SDS011;22639;42.690;23.356;2023-04-24T19:24:58;8.00;;;6.20;;
36391;SDS011;22639;42.690;23.356;2023-04-24T19:28:22;11.23;;;6.00;;
36391;SDS011;22639;42.690;23.356;2023-04-24T19:31:46;8.37;;;6.80;;
36391;SDS011;22639;42.690;23.356;2023-04-24T19:35:10;9.30;;;6.13;;
36391;SDS011;22639;42.690;23.356;2023-04-24T19:38:34;6.30;;;4.93;;
36391;SDS011;22639;42.690;23.356;2023-04-24T19:41:58;4.50;;;3.63;;
36391;SDS011;22639;42.690;23.356;2023-04-24T19:45:23;7.33;;;4.23;;
36391;SDS011;22639;42.690;23.356;2023-04-24T19:48:44;5.53;;;3.80;;
36391;SDS011;22639;42.690;23.356;2023-04-24T19:52:08;4.47;;;3.37;;
36391;SDS011;22639;42.690;23.356;2023-04-24T19:55:32;3.20;;;2.53;;
36391;SDS011;22639;42.690;23.356;2023-04-24T19:58:56;4.40;;;2.20;;
36391;SDS011;22639;42.690;23.356;2023-04-24T20:02:20;1.17;;;1.07;;
36391;SDS011;22639;42.690;23.356;2023-04-24T20:05:44;2.07;;;1.43;;
36391;SDS011;22639;42.690;23.356;2023-04-24T20:09:08;1.67;;;1.43;;
36391;SDS011;22639;42.690;23.356;2023-04-24T20:12:33;2.70;;;2.20;;
36391;SDS011;22639;42.690;23.356;2023-04-24T20:15:57;1.73;;;1.43;;
36391;SDS011;22639;42.690;23.356;2023-04-24T20:19:21;1.67;;;1.40;;
36391;SDS011;22639;42.690;23.356;2023-04-24T20:22:46;2.17;;;2.00;;
36391;SDS011;22639;42.690;23.356;2023-04-24T20:26:09;14.77;;;9.77;;